Time;durP1;ratioP1;P1;durP2;ratioP2;P2;SDS_P1;SDS_P2;PMS_P1;PMS_P2;Temp;Humidity;BMP_temperature;BMP_pressure;BME280_temperature;BME280_humidity;BME280_pressure;Samples;Min_cycle;Max_cycle;Signal;HPM_P1;HPM_P2
2023/03/14 00:01:04;;;;;;;20.30;3.75;;;;;;;;;;6242545;23;20008;-91
2023/03/14 00:03:33;;;;;;;13.00;2.22;;;;;;;;;;6235527;23;20004;-90
2023/03/14 00:06:15;;;;;;;18.80;3.78;;;;;;;;;;6258250;23;20470;-90
2023/03/14 00:08:45;;;;;;;19.77;2.75;;;;;;;;;;6256627;23;19992;-89
2023/03/14 00:11:21;;;;;;;17.40;3.25;;;;;;;;;;6232059;23;20023;-91
2023/03/14 00:14:10;;;;;;;35.85;4.55;;;;;;;;;;6257767;23;20023;-91
2023/03/14 00:16:45;;;;;;;35.53;4.30;;;;;;;;;;6256851;22;19997;-90
2023/03/14 00:19:12;;;;;;;27.58;2.90;;;;;;;;;;6256678;23;20079;-90
2023/03/14 00:21:41;;;;;;;28.05;4.68;;;;;;;;;;6229971;23;20208;-91
2023/03/14 00:24:12;;;;;;;23.75;3.70;;;;;;;;;;6256695;23;19996;-90
2023/03/14 00:27:05;;;;;;;26.60;5.22;;;;;;;;;;6257522;23;20007;-90
2023/03/14 00:29:36;;;;;;;28.08;3.78;;;;;;;;;;6255077;23;20008;-89
2023/03/14 00:32:07;;;;;;;22.77;4.13;;;;;;;;;;6233368;23;20012;-89
2023/03/14 00:34:41;;;;;;;15.88;2.40;;;;;;;;;;6232666;23;20020;-90
2023/03/14 00:37:10;;;;;;;21.70;3.67;;;;;;;;;;6232644;23;20038;-89
2023/03/14 00:39:36;;;;;;;20.50;2.80;;;;;;;;;;6255625;23;20008;-90
2023/03/14 00:42:07;;;;;;;8.70;2.72;;;;;;;;;;6256194;23;20043;-89
2023/03/14 00:50:42;;;;;;;22.85;3.67;;;;;;;;;;6193162;23;20005;-90
2023/03/14 00:53:15;;;;;;;12.60;2.92;;;;;;;;;;6252873;22;19994;-91
2023/03/14 00:55:46;;;;;;;19.92;2.58;;;;;;;;;;6235365;22;20008;-91
2023/03/14 00:58:30;;;;;;;30.90;3.80;;;;;;;;;;6259017;22;20035;-91
2023/03/14 01:01:12;;;;;;;34.45;4.55;;;;;;;;;;6258650;22;20083;-90
2023/03/14 01:03:39;;;;;;;19.02;3.08;;;;;;;;;;6259623;22;20087;-91
2023/03/14 01:06:09;;;;;;;26.70;3.67;;;;;;;;;;6257924;22;20004;-90
2023/03/14 01:08:43;;;;;;;18.73;3.70;;;;;;;;;;6258759;22;19998;-90
2023/03/14 01:13:59;;;;;;;27.80;4.18;;;;;;;;;;6288564;22;20018;-90
2023/03/14 01:16:31;;;;;;;18.75;2.78;;;;;;;;;;6261427;22;20023;-91
2023/03/14 01:19:12;;;;;;;9.00;2.28;;;;;;;;;;6262239;22;20342;-90
2023/03/14 01:22:04;;;;;;;;;;;;;;;;;;;;;
2023/03/14 01:24:34;;;;;;;21.95;4.72;;;;;;;;;;6268792;22;20007;-91
2023/03/14 01:27:11;;;;;;;12.23;3.08;;;;;;;;;;6263169;22;20003;-90
2023/03/14 01:29:48;;;;;;;;;;;;;;;;;;;;;
2023/03/14 01:32:19;;;;;;;19.65;4.20;;;;;;;;;;6289818;22;19988;-90
2023/03/14 01:34:58;;;;;;;14.15;4.25;;;;;;;;;;6263193;22;20041;-90
2023/03/14 01:37:28;;;;;;;6.07;2.65;;;;;;;;;;6236369;22;20419;-90
2023/03/14 01:40:05;;;;;;;13.35;2.63;;;;;;;;;;6238472;22;20011;-90
2023/03/14 01:46:26;;;;;;;14.10;2.40;;;;;;;;;;6197677;22;20126;-90
2023/03/14 01:49:24;;;;;;;22.23;2.80;;;;;;;;;;6197376;23;20008;-90
2023/03/14 01:51:56;;;;;;;11.40;2.17;;;;;;;;;;6182901;23;20008;-90
2023/03/14 01:54:57;;;;;;;15.02;3.22;;;;;;;;;;6231947;23;20032;-91
2023/03/14 02:00:55;;;;;;;8.85;2.33;;;;;;;;;;6164638;23;20518;-90
2023/03/14 02:03:37;;;;;;;8.57;2.38;;;;;;;;;;6254037;23;20023;-91
2023/03/14 02:06:09;;;;;;;11.20;3.72;;;;;;;;;;6231938;23;20034;-91
2023/03/14 02:08:55;;;;;;;13.50;3.08;;;;;;;;;;6231349;23;20008;-91
2023/03/14 02:11:21;;;;;;;11.63;2.15;;;;;;;;;;6231122;23;20011;-90
2023/03/14 02:13:49;;;;;;;15.57;2.13;;;;;;;;;;6257834;23;19996;-91
2023/03/14 02:16:18;;;;;;;9.50;2.10;;;;;;;;;;6228535;23;20004;-90
2023/03/14 02:18:47;;;;;;;9.35;1.65;;;;;;;;;;6205774;23;20019;-91
2023/03/14 02:21:26;;;;;;;23.85;3.42;;;;;;;;;;6205906;23;20082;-90
2023/03/14 02:24:01;;;;;;;11.32;1.83;;;;;;;;;;6230495;23;20486;-90
2023/03/14 02:26:35;;;;;;;7.77;1.47;;;;;;;;;;6231036;23;20011;-90
2023/03/14 02:29:19;;;;;;;10.50;2.17;;;;;;;;;;6229452;23;20551;-90
2023/03/14 02:31:48;;;;;;;14.32;1.38;;;;;;;;;;6256997;23;20004;-91
2023/03/14 02:34:14;;;;;;;2.95;0.93;;;;;;;;;;6230784;23;20008;-91
2023/03/14 02:36:46;;;;;;;9.45;1.83;;;;;;;;;;6205985;23;20012;-90
2023/03/14 02:39:32;;;;;;;7.28;1.80;;;;;;;;;;6206658;23;20087;-91
2023/03/14 02:42:05;;;;;;;6.53;1.70;;;;;;;;;;6255832;23;20015;-91
2023/03/14 02:44:35;;;;;;;11.13;2.00;;;;;;;;;;6229737;23;20000;-90
2023/03/14 02:47:25;;;;;;;11.65;1.13;;;;;;;;;;6231768;22;20087;-90
2023/03/14 02:49:59;;;;;;;10.73;2.05;;;;;;;;;;6255572;23;20075;-89
2023/03/14 02:55:30;;;;;;;16.83;2.15;;;;;;;;;;6195817;23;20039;-90
2023/03/14 02:57:56;;;;;;;16.63;1.80;;;;;;;;;;6232783;23;20023;-90
2023/03/14 03:00:30;;;;;;;18.25;3.20;;;;;;;;;;6259321;23;20444;-90
2023/03/14 03:02:57;;;;;;;4.25;1.42;;;;;;;;;;6257697;23;20000;-90
2023/03/14 03:05:30;;;;;;;11.50;1.55;;;;;;;;;;6251482;23;20012;-90
2023/03/14 03:08:02;;;;;;;10.95;1.63;;;;;;;;;;6258027;22;19984;-90
2023/03/14 03:10:29;;;;;;;10.02;2.17;;;;;;;;;;6256024;23;20004;-89
2023/03/14 03:12:57;;;;;;;12.98;2.55;;;;;;;;;;6256926;23;20087;-89
2023/03/14 03:15:46;;;;;;;5.95;1.50;;;;;;;;;;6256811;23;20008;-90
2023/03/14 03:18:33;;;;;;;17.05;2.15;;;;;;;;;;6199158;23;20019;-90
2023/03/14 03:20:58;;;;;;;;;;;;;;;;;;6256476;23;20009;-90
2023/03/14 03:26:53;;;;;;;7.50;2.40;;;;;;;;;;6202052;23;20102;-89
2023/03/14 03:29:56;;;;;;;14.57;2.58;;;;;;;;;;6213161;23;20016;-89
2023/03/14 03:32:24;;;;;;;13.23;2.38;;;;;;;;;;6262753;22;19999;-89
2023/03/14 03:35:00;;;;;;;22.50;4.40;;;;;;;;;;6254929;23;20023;-89
2023/03/14 03:37:26;;;;;;;11.73;2.95;;;;;;;;;;6252074;23;20442;-90
2023/03/14 03:40:00;;;;;;;16.58;2.70;;;;;;;;;;6230480;23;20015;-90
2023/03/14 03:42:30;;;;;;;3.53;1.83;;;;;;;;;;6256515;23;19997;-90
2023/03/14 03:53:53;;;;;;;6.82;1.90;;;;;;;;;;6265799;22;20043;-89
2023/03/14 03:56:24;;;;;;;10.32;2.30;;;;;;;;;;6230680;23;20048;-89
2023/03/14 03:59:02;;;;;;;9.45;2.53;;;;;;;;;;6231773;23;20008;-90
2023/03/14 04:01:29;;;;;;;29.40;4.03;;;;;;;;;;6230815;23;20056;-91
2023/03/14 04:04:12;;;;;;;19.85;3.63;;;;;;;;;;6230766;23;20004;-90
2023/03/14 04:06:41;;;;;;;17.45;3.47;;;;;;;;;;6230215;23;20014;-90
2023/03/14 04:09:23;;;;;;;8.05;2.15;;;;;;;;;;6229301;23;20004;-91
2023/03/14 04:11:51;;;;;;;18.58;4.10;;;;;;;;;;6229131;23;19992;-90
2023/03/14 04:14:21;;;;;;;7.40;2.65;;;;;;;;;;6203836;23;20011;-90
2023/03/14 04:16:51;;;;;;;18.65;2.90;;;;;;;;;;6203702;23;20059;-90
2023/03/14 04:19:21;;;;;;;10.93;2.70;;;;;;;;;;6205243;23;20085;-90
2023/03/14 04:22:18;;;;;;;15.60;3.45;;;;;;;;;;6231063;23;20004;-90
2023/03/14 04:24:48;;;;;;;27.52;5.63;;;;;;;;;;6218557;23;20039;-90
2023/03/14 04:27:35;;;;;;;22.45;4.43;;;;;;;;;;6228711;23;20083;-90
2023/03/14 04:30:03;;;;;;;17.73;4.43;;;;;;;;;;6230217;23;20028;-90
2023/03/14 04:32:47;;;;;;;17.63;3.17;;;;;;;;;;6204883;23;20039;-90
2023/03/14 04:35:14;;;;;;;14.07;4.72;;;;;;;;;;6228704;23;20035;-89
2023/03/14 04:37:43;;;;;;;13.05;2.38;;;;;;;;;;6202889;23;20008;-90
2023/03/14 04:40:12;;;;;;;31.88;5.00;;;;;;;;;;6204969;23;20012;-90
2023/03/14 04:42:42;;;;;;;10.82;3.35;;;;;;;;;;6202390;23;20100;-89
2023/03/14 04:45:15;;;;;;;19.52;4.72;;;;;;;;;;6209332;23;20045;-89
2023/03/14 04:47:45;;;;;;;21.75;4.20;;;;;;;;;;6196463;23;20342;-90
2023/03/14 04:50:18;;;;;;;19.98;4.85;;;;;;;;;;6196952;23;20009;-89
2023/03/14 04:52:45;;;;;;;23.42;4.10;;;;;;;;;;6197107;23;20183;-90
2023/03/14 04:55:21;;;;;;;14.73;3.15;;;;;;;;;;6196377;22;20045;-87
2023/03/14 04:57:49;;;;;;;10.55;3.92;;;;;;;;;;6164390;23;20009;-91
2023/03/14 05:00:18;;;;;;;14.98;4.95;;;;;;;;;;6166634;23;20016;-90
2023/03/14 05:02:55;;;;;;;15.73;4.35;;;;;;;;;;6164208;23;20032;-90
2023/03/14 05:05:21;;;;;;;12.00;4.35;;;;;;;;;;6167737;23;20005;-91
2023/03/14 05:08:04;;;;;;;18.45;3.65;;;;;;;;;;6166242;23;20012;-89
2023/03/14 05:10:31;;;;;;;19.00;4.28;;;;;;;;;;6167190;23;20024;-89
2023/03/14 05:12:57;;;;;;;5.53;2.38;;;;;;;;;;6160924;23;20027;-88
2023/03/14 05:15:33;;;;;;;12.98;4.68;;;;;;;;;;6163966;23;20596;-89
2023/03/14 05:18:03;;;;;;;16.23;3.65;;;;;;;;;;6169170;23;20013;-89
2023/03/14 05:20:39;;;;;;;14.73;5.00;;;;;;;;;;6169669;23;20282;-90
2023/03/14 05:23:05;;;;;;;;;;;;;;;;;;6169907;23;20013;-88
2023/03/14 05:25:33;;;;;;;9.35;4.72;;;;;;;;;;6168071;23;19927;-88
2023/03/14 05:28:05;;;;;;;24.27;4.22;;;;;;;;;;6167416;23;20009;-88
2023/03/14 05:30:33;;;;;;;12.40;2.97;;;;;;;;;;6168123;23;20012;-89
2023/03/14 05:33:06;;;;;;;12.93;3.80;;;;;;;;;;6170388;23;20447;-89
2023/03/14 05:35:33;;;;;;;17.05;2.97;;;;;;;;;;6168108;23;20016;-87
2023/03/14 05:38:04;;;;;;;12.77;4.20;;;;;;;;;;6168359;23;20032;-87
2023/03/14 05:41:01;;;;;;;8.90;3.92;;;;;;;;;;6166522;23;20678;-87
2023/03/14 05:43:27;;;;;;;11.40;3.28;;;;;;;;;;6144295;23;20618;-87
2023/03/14 05:45:55;;;;;;;14.32;5.13;;;;;;;;;;6168266;23;20021;-88
2023/03/14 05:48:26;;;;;;;15.82;4.15;;;;;;;;;;6168225;23;20001;-86
2023/03/14 05:50:55;;;;;;;17.70;3.10;;;;;;;;;;6166654;23;20020;-86
2023/03/14 05:53:22;;;;;;;8.20;2.30;;;;;;;;;;6167396;22;20063;-86
2023/03/14 05:55:58;;;;;;;13.45;4.18;;;;;;;;;;6192832;23;20486;-86
2023/03/14 05:58:28;;;;;;;12.57;3.13;;;;;;;;;;6192793;23;20031;-90
2023/03/14 06:01:01;;;;;;;9.55;2.80;;;;;;;;;;6193119;23;20229;-88
2023/03/14 06:03:31;;;;;;;20.25;3.35;;;;;;;;;;6193947;23;20028;-87
2023/03/14 06:06:29;;;;;;;9.77;2.53;;;;;;;;;;6192877;23;20012;-86
2023/03/14 06:08:57;;;;;;;7.60;3.08;;;;;;;;;;6159016;23;20514;-88
2023/03/14 06:11:24;;;;;;;6.30;3.35;;;;;;;;;;6189213;23;20005;-85
2023/03/14 06:13:51;;;;;;;2.72;1.83;;;;;;;;;;6187936;23;20013;-85
2023/03/14 06:16:39;;;;;;;;;;;;;;;;;;;;;
2023/03/14 06:19:08;;;;;;;11.48;2.65;;;;;;;;;;6194878;23;20077;-86
2023/03/14 06:21:35;;;;;;;11.10;2.38;;;;;;;;;;6188426;23;20044;-86
2023/03/14 06:24:03;;;;;;;9.13;2.25;;;;;;;;;;6189081;23;20032;-87
2023/03/14 06:26:30;;;;;;;10.55;2.00;;;;;;;;;;6191367;23;20058;-87
2023/03/14 06:29:03;;;;;;;4.68;2.55;;;;;;;;;;6191576;23;20012;-87
2023/03/14 06:31:31;;;;;;;2.47;1.05;;;;;;;;;;6190772;23;20092;-87
2023/03/14 06:34:27;;;;;;;6.47;1.17;;;;;;;;;;6191750;23;20390;-89
2023/03/14 06:36:53;;;;;;;6.75;1.70;;;;;;;;;;6188217;23;20031;-87
2023/03/14 06:39:19;;;;;;;5.68;0.95;;;;;;;;;;6189985;23;20019;-88
2023/03/14 06:41:46;;;;;;;23.95;2.33;;;;;;;;;;6187827;23;20070;-87
2023/03/14 06:44:12;;;;;;;28.70;2.10;;;;;;;;;;6185166;23;20035;-87
2023/03/14 06:46:38;;;;;;;13.38;2.03;;;;;;;;;;6184853;23;20001;-88
2023/03/14 06:49:05;;;;;;;16.08;2.08;;;;;;;;;;6188850;23;20035;-88
2023/03/14 06:51:47;;;;;;;8.70;1.90;;;;;;;;;;6188209;23;20036;-87
2023/03/14 06:54:13;;;;;;;20.10;2.05;;;;;;;;;;6186149;23;20081;-88
2023/03/14 06:56:40;;;;;;;28.40;2.05;;;;;;;;;;6159419;23;20430;-88
2023/03/14 06:59:11;;;;;;;9.05;1.55;;;;;;;;;;6158542;23;20368;-86
2023/03/14 07:01:37;;;;;;;15.05;1.83;;;;;;;;;;6159865;23;20028;-87
2023/03/14 07:04:05;;;;;;;17.33;1.80;;;;;;;;;;6160463;23;20013;-87
2023/03/14 07:06:43;;;;;;;26.83;2.28;;;;;;;;;;6160447;23;20005;-87
2023/03/14 07:09:10;;;;;;;27.02;2.08;;;;;;;;;;6162314;23;20040;-88
2023/03/14 07:11:45;;;;;;;8.57;1.48;;;;;;;;;;6161029;23;20029;-88
2023/03/14 07:14:19;;;;;;;16.15;1.90;;;;;;;;;;6160150;23;20028;-88
2023/03/14 07:16:48;;;;;;;13.68;1.77;;;;;;;;;;6158598;23;20013;-86
2023/03/14 07:19:14;;;;;;;13.73;1.15;;;;;;;;;;6159826;23;20072;-88
2023/03/14 07:21:40;;;;;;;17.00;1.48;;;;;;;;;;6159308;23;20767;-87
2023/03/14 07:24:09;;;;;;;8.75;1.45;;;;;;;;;;6160418;23;20043;-87
2023/03/14 07:26:35;;;;;;;13.98;1.20;;;;;;;;;;6160293;23;20514;-88
2023/03/14 07:29:03;;;;;;;19.20;1.20;;;;;;;;;;6159449;23;20009;-87
2023/03/14 07:31:31;;;;;;;9.73;0.57;;;;;;;;;;6186329;23;20199;-88
2023/03/14 07:34:01;;;;;;;1.58;0.32;;;;;;;;;;6161357;23;20032;-87
2023/03/14 07:36:33;;;;;;;5.88;0.52;;;;;;;;;;6160016;23;20041;-88
2023/03/14 07:39:02;;;;;;;5.90;0.90;;;;;;;;;;6159765;23;20009;-86
2023/03/14 07:41:28;;;;;;;2.75;0.57;;;;;;;;;;6160104;23;20133;-88
2023/03/14 07:43:55;;;;;;;9.23;0.57;;;;;;;;;;6158045;23;20061;-87
2023/03/14 07:49:20;;;;;;;16.00;0.65;;;;;;;;;;6105283;23;20041;-88
2023/03/14 07:52:23;;;;;;;;;;;;;;;;;;;;;
2023/03/14 07:55:02;;;;;;;0.00;0.00;;;;;;;;;;6176898;22;20405;-88
2023/03/14 07:57:36;;;;;;;2.85;0.70;;;;;;;;;;6192652;23;20008;-88
2023/03/14 08:00:03;;;;;;;18.35;1.50;;;;;;;;;;6191125;23;20459;-87
2023/03/14 08:02:29;;;;;;;6.60;0.40;;;;;;;;;;6193289;23;20443;-88
2023/03/14 08:05:02;;;;;;;10.18;0.80;;;;;;;;;;6191911;23;20008;-88
2023/03/14 08:07:31;;;;;;;4.43;0.80;;;;;;;;;;6190259;23;20072;-88
2023/03/14 08:10:00;;;;;;;9.20;0.90;;;;;;;;;;6190979;23;20060;-88
2023/03/14 08:12:26;;;;;;;3.75;0.70;;;;;;;;;;6191293;23;20058;-88
2023/03/14 08:14:53;;;;;;;5.90;1.05;;;;;;;;;;6191915;23;20082;-88
2023/03/14 08:17:23;;;;;;;11.93;1.70;;;;;;;;;;6191652;23;20076;-87
2023/03/14 08:19:49;;;;;;;6.68;1.23;;;;;;;;;;6194436;23;20005;-88
2023/03/14 08:22:15;;;;;;;10.57;1.13;;;;;;;;;;6190271;23;20166;-87
2023/03/14 08:24:42;;;;;;;10.43;1.13;;;;;;;;;;6192265;23;20001;-88
2023/03/14 08:27:09;;;;;;;2.45;0.80;;;;;;;;;;6193010;23;20013;-88
2023/03/14 08:29:40;;;;;;;11.27;0.95;;;;;;;;;;6190944;23;20442;-89
2023/03/14 08:32:06;;;;;;;9.18;1.20;;;;;;;;;;6193046;23;20017;-88
2023/03/14 08:34:39;;;;;;;9.82;1.20;;;;;;;;;;6191280;23;20080;-89
2023/03/14 08:37:08;;;;;;;3.45;1.08;;;;;;;;;;6187903;23;20070;-89
2023/03/14 08:39:36;;;;;;;18.80;2.20;;;;;;;;;;6189607;23;20042;-88
2023/03/14 08:42:16;;;;;;;14.27;1.42;;;;;;;;;;6195252;23;20015;-88
2023/03/14 08:44:42;;;;;;;8.10;1.30;;;;;;;;;;6218190;23;20228;-90
2023/03/14 08:47:10;;;;;;;6.63;1.10;;;;;;;;;;6194061;23;20015;-90
2023/03/14 08:49:54;;;;;;;10.50;1.42;;;;;;;;;;6193272;23;20012;-89
2023/03/14 08:52:41;;;;;;;13.80;1.88;;;;;;;;;;6193795;23;20101;-89
2023/03/14 08:55:20;;;;;;;12.82;1.40;;;;;;;;;;6191604;22;20726;-91
2023/03/14 08:58:00;;;;;;;;;;;;;;;;;;;;;
2023/03/14 09:00:26;;;;;;;7.05;1.85;;;;;;;;;;6194133;23;20103;-89
2023/03/14 09:02:52;;;;;;;22.67;2.17;;;;;;;;;;6193320;23;20342;-88
2023/03/14 09:05:19;;;;;;;38.67;4.20;;;;;;;;;;6191403;23;20009;-89
2023/03/14 09:07:49;;;;;;;20.90;2.35;;;;;;;;;;6188732;23;20646;-89
2023/03/14 09:10:18;;;;;;;25.30;2.55;;;;;;;;;;6190028;23;20028;-87
2023/03/14 09:12:52;;;;;;;23.13;2.47;;;;;;;;;;6192728;23;20501;-88
2023/03/14 09:18:17;;;;;;;18.23;3.03;;;;;;;;;;6209945;23;20011;-88
2023/03/14 09:20:43;;;;;;;21.63;2.65;;;;;;;;;;6193935;23;20503;-88
2023/03/14 09:23:30;;;;;;;28.80;2.95;;;;;;;;;;6194011;23;20016;-89
2023/03/14 09:25:57;;;;;;;35.45;3.90;;;;;;;;;;6193142;23;20004;-90
2023/03/14 09:28:32;;;;;;;16.15;2.55;;;;;;;;;;6188962;23;20062;-90
2023/03/14 09:31:03;;;;;;;30.92;3.42;;;;;;;;;;6190149;23;20435;-90
2023/03/14 09:33:40;;;;;;;21.83;3.42;;;;;;;;;;6190623;23;20079;-90
2023/03/14 09:36:12;;;;;;;22.45;2.28;;;;;;;;;;6191462;23;20015;-90
2023/03/14 09:38:40;;;;;;;14.02;2.80;;;;;;;;;;6192970;23;20005;-91
2023/03/14 09:41:57;;;;;;;36.15;3.30;;;;;;;;;;6194299;23;20505;-90
2023/03/14 09:44:31;;;;;;;31.35;2.90;;;;;;;;;;6129238;23;20024;-88
2023/03/14 09:46:59;;;;;;;;;;;;;;;;;;6222867;23;20008;-88
2023/03/14 09:52:47;;;;;;;37.83;3.03;;;;;;;;;;6148514;23;20318;-90
2023/03/14 09:55:17;;;;;;;26.60;3.72;;;;;;;;;;6193555;22;20013;-89
2023/03/14 09:57:47;;;;;;;34.05;3.25;;;;;;;;;;6196373;23;20008;-89
2023/03/14 10:00:51;;;;;;;21.60;3.20;;;;;;;;;;6212398;23;20035;-90
2023/03/14 10:03:50;;;;;;;28.88;3.20;;;;;;;;;;6048940;23;20433;-90
2023/03/14 10:06:23;;;;;;;27.55;3.28;;;;;;;;;;5962964;24;20008;-89
2023/03/14 10:08:52;;;;;;;16.75;2.88;;;;;;;;;;6023447;23;20026;-90
2023/03/14 10:14:37;;;;;;;23.33;3.40;;;;;;;;;;6043342;23;20032;-89
2023/03/14 10:17:24;;;;;;;17.40;3.25;;;;;;;;;;6046038;23;20457;-91
2023/03/14 10:20:01;;;;;;;14.77;2.85;;;;;;;;;;6045585;23;20006;-90
2023/03/14 10:22:30;;;;;;;20.58;3.15;;;;;;;;;;6046043;23;20010;-89
2023/03/14 10:25:09;;;;;;;21.65;3.45;;;;;;;;;;6048862;23;20011;-89
2023/03/14 10:30:47;;;;;;;25.23;3.28;;;;;;;;;;6050292;23;20026;-88
2023/03/14 10:37:33;;;;;;;15.77;2.65;;;;;;;;;;6053021;23;20346;-90
2023/03/14 10:43:05;;;;;;;23.35;1.45;;;;;;;;;;5988281;23;20007;-90
2023/03/14 10:46:08;;;;;;;23.13;2.35;;;;;;;;;;6053881;23;20010;-88
2023/03/14 10:52:19;;;;;;;16.17;1.63;;;;;;;;;;6008446;23;20044;-90
2023/03/14 10:55:09;;;;;;;12.10;2.47;;;;;;;;;;6185205;23;20004;-90
2023/03/14 11:00:42;;;;;;;14.57;2.15;;;;;;;;;;6177213;23;20020;-92
2023/03/14 11:03:13;;;;;;;20.13;2.65;;;;;;;;;;6163310;23;20009;-91
2023/03/14 11:06:13;;;;;;;9.75;1.45;;;;;;;;;;6189192;23;20004;-92
2023/03/14 11:08:51;;;;;;;10.15;2.50;;;;;;;;;;6166156;23;20324;-91
2023/03/14 11:11:41;;;;;;;7.93;1.50;;;;;;;;;;6165998;23;20013;-91
2023/03/14 11:14:33;;;;;;;;;;;;;;;;;;;;;
2023/03/14 11:17:14;;;;;;;15.90;1.50;;;;;;;;;;6190153;23;20470;-94
2023/03/14 11:20:12;;;;;;;9.63;1.70;;;;;;;;;;6163549;23;20398;-94
2023/03/14 11:25:38;;;;;;;5.78;1.65;;;;;;;;;;6189557;23;20055;-91
2023/03/14 11:28:43;;;;;;;7.07;2.30;;;;;;;;;;6165618;23;20009;-92
2023/03/14 11:35:00;;;;;;;7.10;1.42;;;;;;;;;;6104498;23;20018;-93
2023/03/14 11:37:58;;;;;;;5.78;1.70;;;;;;;;;;6106763;23;20038;-94
2023/03/14 11:40:36;;;;;;;8.88;1.90;;;;;;;;;;6184702;23;20020;-92
2023/03/14 11:46:25;;;;;;;6.10;1.42;;;;;;;;;;6291302;22;20034;-95
2023/03/14 11:49:12;;;;;;;16.92;1.65;;;;;;;;;;6285617;22;20014;-94
2023/03/14 11:51:47;;;;;;;8.90;1.80;;;;;;;;;;6286848;22;20013;-95
2023/03/14 11:54:42;;;;;;;4.53;1.58;;;;;;;;;;6285039;22;20007;-94
2023/03/14 11:57:16;;;;;;;8.35;1.65;;;;;;;;;;6280753;22;20078;-93
2023/03/14 11:59:57;;;;;;;6.60;1.50;;;;;;;;;;6251201;22;20012;-94
2023/03/14 12:02:24;;;;;;;9.93;1.75;;;;;;;;;;6250410;22;20146;-92
2023/03/14 12:05:09;;;;;;;9.45;1.80;;;;;;;;;;6252695;22;20350;-95
2023/03/14 12:07:41;;;;;;;7.15;1.13;;;;;;;;;;6249964;22;20103;-94
2023/03/14 12:10:10;;;;;;;11.13;1.58;;;;;;;;;;6280361;22;20034;-95
2023/03/14 12:12:40;;;;;;;5.68;1.20;;;;;;;;;;6254446;22;20011;-95
2023/03/14 12:15:18;;;;;;;8.60;1.25;;;;;;;;;;6253300;22;20067;-95
2023/03/14 12:17:47;;;;;;;12.90;1.80;;;;;;;;;;6256338;22;20027;-94
2023/03/14 12:20:16;;;;;;;11.30;1.90;;;;;;;;;;6254446;22;20010;-94
2023/03/14 12:22:58;;;;;;;10.55;1.48;;;;;;;;;;6253942;22;20004;-94
2023/03/14 12:25:26;;;;;;;4.13;1.10;;;;;;;;;;6253247;22;20004;-93
2023/03/14 12:27:55;;;;;;;14.90;1.83;;;;;;;;;;6251800;22;20007;-94
2023/03/14 12:30:27;;;;;;;9.80;2.05;;;;;;;;;;6251875;22;20109;-94
2023/03/14 12:33:13;;;;;;;7.63;1.42;;;;;;;;;;6251745;22;20058;-95
2023/03/14 12:35:43;;;;;;;6.10;1.60;;;;;;;;;;6254185;22;20422;-95
2023/03/14 12:38:16;;;;;;;16.42;2.55;;;;;;;;;;6254122;22;20019;-95
2023/03/14 12:40:51;;;;;;;20.33;2.05;;;;;;;;;;6251598;22;20313;-94
2023/03/14 12:43:26;;;;;;;18.95;2.60;;;;;;;;;;6252242;22;20031;-94
2023/03/14 12:46:19;;;;;;;17.55;1.83;;;;;;;;;;6251496;22;20016;-93
2023/03/14 12:48:47;;;;;;;7.47;1.45;;;;;;;;;;6210196;23;20012;-94
2023/03/14 12:51:14;;;;;;;10.48;1.80;;;;;;;;;;6251683;23;20008;-94
2023/03/14 12:53:59;;;;;;;8.27;1.60;;;;;;;;;;6256677;23;20058;-94
2023/03/14 12:56:39;;;;;;;8.05;1.88;;;;;;;;;;6254403;23;20015;-93
2023/03/14 12:59:13;;;;;;;13.45;1.60;;;;;;;;;;6250437;23;20020;-94
2023/03/14 13:01:47;;;;;;;10.05;1.60;;;;;;;;;;6252163;23;20012;-94
2023/03/14 13:04:14;;;;;;;3.72;1.15;;;;;;;;;;6255311;23;20004;-94
2023/03/14 13:06:54;;;;;;;12.98;1.23;;;;;;;;;;6259357;22;20018;-93
2023/03/14 13:12:33;;;;;;;9.13;1.52;;;;;;;;;;6257868;22;20012;-93
2023/03/14 13:15:00;;;;;;;12.20;1.50;;;;;;;;;;6255993;23;20074;-94
2023/03/14 13:17:31;;;;;;;5.90;1.55;;;;;;;;;;6260987;23;20028;-94
2023/03/14 13:20:00;;;;;;;5.53;1.27;;;;;;;;;;6260305;23;20008;-94
2023/03/14 13:22:32;;;;;;;5.45;1.38;;;;;;;;;;6260563;22;20068;-95
2023/03/14 13:25:10;;;;;;;9.93;1.42;;;;;;;;;;6257896;23;20087;-94
2023/03/14 13:27:42;;;;;;;9.85;1.73;;;;;;;;;;6255752;23;20004;-94
2023/03/14 13:30:21;;;;;;;7.55;1.50;;;;;;;;;;6255041;23;20016;-94
2023/03/14 13:32:48;;;;;;;8.52;1.30;;;;;;;;;;6255312;23;20068;-94
2023/03/14 13:35:19;;;;;;;10.27;1.48;;;;;;;;;;6254553;22;20376;-94
2023/03/14 13:37:49;;;;;;;17.27;1.35;;;;;;;;;;6254795;23;20060;-94
2023/03/14 13:40:34;;;;;;;7.88;2.55;;;;;;;;;;6255672;22;20074;-95
2023/03/14 13:43:15;;;;;;;10.48;1.30;;;;;;;;;;6254656;22;20024;-93
2023/03/14 13:46:00;;;;;;;7.88;1.40;;;;;;;;;;6257913;22;20008;-94
2023/03/14 13:48:35;;;;;;;12.63;1.75;;;;;;;;;;6259148;22;20004;-95
2023/03/14 13:51:16;;;;;;;8.13;1.70;;;;;;;;;;6260035;22;20008;-95
2023/03/14 13:53:50;;;;;;;13.13;1.70;;;;;;;;;;6257114;22;20003;-94
2023/03/14 13:56:18;;;;;;;12.38;2.17;;;;;;;;;;6257774;22;20516;-94
2023/03/14 13:58:48;;;;;;;13.43;1.85;;;;;;;;;;6258350;22;20011;-94
2023/03/14 14:01:23;;;;;;;12.35;1.58;;;;;;;;;;6260384;22;20011;-93
2023/03/14 14:03:51;;;;;;;4.33;0.93;;;;;;;;;;6259895;22;20027;-94
2023/03/14 14:06:31;;;;;;;9.30;1.67;;;;;;;;;;6259422;22;20226;-94
2023/03/14 14:08:59;;;;;;;15.25;3.97;;;;;;;;;;6261677;22;20593;-94
2023/03/14 14:11:45;;;;;;;8.93;1.13;;;;;;;;;;6287076;22;20018;-94
2023/03/14 14:14:21;;;;;;;8.05;1.73;;;;;;;;;;6234704;22;20018;-96
2023/03/14 14:16:50;;;;;;;17.05;2.08;;;;;;;;;;6261588;22;20473;-95
2023/03/14 14:19:17;;;;;;;5.35;1.70;;;;;;;;;;6260747;22;20016;-94
2023/03/14 14:21:44;;;;;;;7.00;1.60;;;;;;;;;;6262135;22;20023;-96
2023/03/14 14:24:13;;;;;;;8.13;1.38;;;;;;;;;;6259850;22;20042;-95
2023/03/14 14:26:48;;;;;;;9.38;1.55;;;;;;;;;;6260708;22;20011;-93
2023/03/14 14:29:34;;;;;;;7.15;1.30;;;;;;;;;;6257911;22;19991;-94
2023/03/14 14:32:12;;;;;;;3.08;1.00;;;;;;;;;;6259466;22;20007;-93
2023/03/14 14:34:58;;;;;;;4.85;1.55;;;;;;;;;;6257240;22;20067;-95
2023/03/14 14:37:26;;;;;;;8.13;1.33;;;;;;;;;;6256664;22;20011;-93
2023/03/14 14:39:53;;;;;;;6.68;2.10;;;;;;;;;;6257517;22;20073;-94
2023/03/14 14:42:24;;;;;;;8.98;1.83;;;;;;;;;;6257715;22;20007;-94
2023/03/14 14:44:51;;;;;;;13.63;1.55;;;;;;;;;;6254832;22;20004;-94
2023/03/14 14:47:19;;;;;;;9.68;2.00;;;;;;;;;;6252887;22;20027;-94
2023/03/14 14:49:47;;;;;;;13.93;2.00;;;;;;;;;;6251372;22;20040;-94
2023/03/14 14:52:19;;;;;;;12.68;2.10;;;;;;;;;;6250972;23;20071;-94
2023/03/14 14:55:13;;;;;;;26.20;3.10;;;;;;;;;;6253436;22;20027;-93
2023/03/14 14:57:42;;;;;;;13.68;2.55;;;;;;;;;;6252039;23;20012;-94
2023/03/14 15:00:12;;;;;;;21.70;2.78;;;;;;;;;;6256208;23;20030;-94
2023/03/14 15:02:49;;;;;;;4.78;1.00;;;;;;;;;;6258946;22;20012;-94
2023/03/14 15:05:19;;;;;;;11.18;1.20;;;;;;;;;;6259117;22;20064;-94
2023/03/14 15:07:46;;;;;;;17.85;2.17;;;;;;;;;;6256385;23;19992;-94
2023/03/14 15:10:14;;;;;;;10.63;1.30;;;;;;;;;;6256343;22;20011;-95
2023/03/14 15:12:40;;;;;;;8.63;1.60;;;;;;;;;;6256548;23;20012;-93
2023/03/14 15:15:07;;;;;;;10.38;1.20;;;;;;;;;;6256024;22;20142;-94
2023/03/14 15:17:36;;;;;;;10.18;1.00;;;;;;;;;;6253469;22;20023;-94
2023/03/14 15:20:06;;;;;;;5.25;1.08;;;;;;;;;;6255390;23;20008;-95
2023/03/14 15:22:33;;;;;;;8.70;1.08;;;;;;;;;;6256329;22;20019;-94
2023/03/14 15:24:59;;;;;;;5.30;2.05;;;;;;;;;;6254248;22;20008;-94
2023/03/14 15:27:27;;;;;;;9.18;2.15;;;;;;;;;;6254560;23;20031;-94
2023/03/14 15:29:53;;;;;;;5.32;1.10;;;;;;;;;;6255022;22;20016;-95
2023/03/14 15:32:23;;;;;;;5.82;1.20;;;;;;;;;;6254803;22;20012;-95
2023/03/14 15:34:57;;;;;;;7.03;1.38;;;;;;;;;;6253962;23;20058;-95
2023/03/14 15:37:27;;;;;;;11.50;1.55;;;;;;;;;;6255023;23;20116;-95
2023/03/14 15:39:57;;;;;;;9.40;2.08;;;;;;;;;;6255992;22;20043;-95
2023/03/14 15:42:42;;;;;;;;;;;;;;;;;;;;;
2023/03/14 15:45:09;;;;;;;3.88;1.02;;;;;;;;;;6259450;23;20024;-95
2023/03/14 15:50:31;;;;;;;5.30;1.80;;;;;;;;;;6204152;22;20065;-94
2023/03/14 15:52:57;;;;;;;5.72;0.88;;;;;;;;;;6257365;22;20020;-94
2023/03/14 15:55:32;;;;;;;7.35;1.40;;;;;;;;;;6257321;23;20007;-93
2023/03/14 15:57:59;;;;;;;8.23;1.23;;;;;;;;;;6259239;22;20012;-94
2023/03/14 16:00:26;;;;;;;10.63;1.77;;;;;;;;;;6257961;22;20013;-95
2023/03/14 16:02:58;;;;;;;1.67;0.40;;;;;;;;;;6264669;22;20046;-94
2023/03/14 16:05:26;;;;;;;7.68;1.33;;;;;;;;;;6258510;22;20013;-94
2023/03/14 16:08:01;;;;;;;6.25;0.95;;;;;;;;;;6254657;22;20013;-95
2023/03/14 16:10:28;;;;;;;9.18;1.25;;;;;;;;;;6254717;23;20001;-94
2023/03/14 16:13:29;;;;;;;3.72;1.35;;;;;;;;;;6258565;23;20004;-95
2023/03/14 16:16:15;;;;;;;11.98;1.88;;;;;;;;;;6237560;23;20035;-95
2023/03/14 16:18:42;;;;;;;4.88;1.10;;;;;;;;;;6239371;23;20004;-95
2023/03/14 16:21:11;;;;;;;7.63;1.38;;;;;;;;;;6254725;22;20015;-95
2023/03/14 16:23:38;;;;;;;2.50;1.02;;;;;;;;;;6253789;23;20027;-95
2023/03/14 16:26:07;;;;;;;4.63;0.70;;;;;;;;;;6255567;22;20239;-95
2023/03/14 16:28:34;;;;;;;4.32;1.52;;;;;;;;;;6252914;23;20004;-93
2023/03/14 16:31:02;;;;;;;6.75;1.55;;;;;;;;;;6254357;22;20004;-95
2023/03/14 16:33:28;;;;;;;11.45;1.52;;;;;;;;;;6253330;23;20342;-95
2023/03/14 16:36:04;;;;;;;2.45;0.52;;;;;;;;;;6254694;22;20015;-94
2023/03/14 16:38:31;;;;;;;6.63;1.85;;;;;;;;;;6259056;22;20000;-94